sensor_id;sensor_type;location;lat;lon;timestamp;P1;durP1;ratioP1;P2;durP2;ratioP2
5801;SDS011;2927;49.366;8.530;2023-05-19T00:00:55;7.30;;;1.90;;
5801;SDS011;2927;49.366;8.530;2023-05-19T00:03:22;5.80;;;1.50;;
5801;SDS011;2927;49.366;8.530;2023-05-19T00:05:48;3.03;;;1.20;;
5801;SDS011;2927;49.366;8.530;2023-05-19T00:08:15;5.83;;;1.53;;
5801;SDS011;2927;49.366;8.530;2023-05-19T00:10:42;2.27;;;1.30;;
5801;SDS011;2927;49.366;8.530;2023-05-19T00:13:08;5.10;;;1.43;;
5801;SDS011;2927;49.366;8.530;2023-05-19T00:15:34;4.50;;;1.60;;
5801;SDS011;2927;49.366;8.530;2023-05-19T00:17:59;3.17;;;1.30;;
5801;SDS011;2927;49.366;8.530;2023-05-19T00:20:25;6.80;;;1.83;;
5801;SDS011;2927;49.366;8.530;2023-05-19T00:22:51;6.87;;;1.57;;
5801;SDS011;2927;49.366;8.530;2023-05-19T00:25:16;4.43;;;1.73;;
5801;SDS011;2927;49.366;8.530;2023-05-19T00:27:42;6.57;;;1.77;;
5801;SDS011;2927;49.366;8.530;2023-05-19T00:30:08;7.50;;;2.23;;
5801;SDS011;2927;49.366;8.530;2023-05-19T00:32:33;9.20;;;2.10;;
5801;SDS011;2927;49.366;8.530;2023-05-19T00:34:59;4.40;;;1.57;;
5801;SDS011;2927;49.366;8.530;2023-05-19T00:37:25;9.90;;;1.50;;
5801;SDS011;2927;49.366;8.530;2023-05-19T00:39:50;6.63;;;1.63;;
5801;SDS011;2927;49.366;8.530;2023-05-19T00:42:16;16.60;;;2.37;;
5801;SDS011;2927;49.366;8.530;2023-05-19T00:44:41;7.47;;;2.03;;
5801;SDS011;2927;49.366;8.530;2023-05-19T00:47:07;5.10;;;1.50;;
5801;SDS011;2927;49.366;8.530;2023-05-19T00:49:33;15.57;;;1.80;;
5801;SDS011;2927;49.366;8.530;2023-05-19T00:52:00;8.03;;;1.97;;
5801;SDS011;2927;49.366;8.530;2023-05-19T00:54:26;2.90;;;0.90;;
5801;SDS011;2927;49.366;8.530;2023-05-19T00:56:53;4.60;;;1.70;;
5801;SDS011;2927;49.366;8.530;2023-05-19T00:59:19;1.73;;;1.60;;
5801;SDS011;2927;49.366;8.530;2023-05-19T01:01:45;3.90;;;1.27;;
5801;SDS011;2927;49.366;8.530;2023-05-19T01:04:13;4.00;;;1.63;;
5801;SDS011;2927;49.366;8.530;2023-05-19T01:06:51;4.87;;;1.50;;
5801;SDS011;2927;49.366;8.530;2023-05-19T01:09:19;10.53;;;1.70;;
5801;SDS011;2927;49.366;8.530;2023-05-19T01:11:48;3.50;;;1.40;;
5801;SDS011;2927;49.366;8.530;2023-05-19T01:14:14;4.27;;;1.60;;
5801;SDS011;2927;49.366;8.530;2023-05-19T01:16:42;14.33;;;1.83;;
5801;SDS011;2927;49.366;8.530;2023-05-19T01:19:22;2.20;;;1.63;;
5801;SDS011;2927;49.366;8.530;2023-05-19T01:22:10;11.23;;;3.20;;
5801;SDS011;2927;49.366;8.530;2023-05-19T01:30:25;10.33;;;2.40;;
5801;SDS011;2927;49.366;8.530;2023-05-19T01:33:13;10.87;;;2.17;;
5801;SDS011;2927;49.366;8.530;2023-05-19T01:35:39;5.37;;;1.63;;
5801;SDS011;2927;49.366;8.530;2023-05-19T01:38:07;5.00;;;1.80;;
5801;SDS011;2927;49.366;8.530;2023-05-19T01:40:34;8.77;;;2.00;;
5801;SDS011;2927;49.366;8.530;2023-05-19T01:43:02;4.63;;;2.20;;
5801;SDS011;2927;49.366;8.530;2023-05-19T01:45:28;7.47;;;2.70;;
5801;SDS011;2927;49.366;8.530;2023-05-19T01:47:58;6.93;;;3.00;;
5801;SDS011;2927;49.366;8.530;2023-05-19T01:50:28;13.13;;;3.23;;
5801;SDS011;2927;49.366;8.530;2023-05-19T01:52:54;10.93;;;3.27;;
5801;SDS011;2927;49.366;8.530;2023-05-19T01:55:20;8.17;;;2.57;;
5801;SDS011;2927;49.366;8.530;2023-05-19T02:03:56;3.80;;;3.00;;
5801;SDS011;2927;49.366;8.530;2023-05-19T02:09:34;3.63;;;2.43;;
5801;SDS011;2927;49.366;8.530;2023-05-19T02:12:37;6.70;;;2.60;;
5801;SDS011;2927;49.366;8.530;2023-05-19T02:17:42;4.30;;;3.00;;
5801;SDS011;2927;49.366;8.530;2023-05-19T02:20:12;9.57;;;2.80;;
5801;SDS011;2927;49.366;8.530;2023-05-19T02:22:39;5.57;;;2.90;;
5801;SDS011;2927;49.366;8.530;2023-05-19T02:25:05;5.80;;;4.27;;
5801;SDS011;2927;49.366;8.530;2023-05-19T02:27:32;5.70;;;2.37;;
5801;SDS011;2927;49.366;8.530;2023-05-19T02:29:58;7.70;;;3.20;;
5801;SDS011;2927;49.366;8.530;2023-05-19T02:32:23;12.40;;;3.10;;
5801;SDS011;2927;49.366;8.530;2023-05-19T02:34:50;16.50;;;3.30;;
5801;SDS011;2927;49.366;8.530;2023-05-19T02:37:17;7.53;;;3.17;;
5801;SDS011;2927;49.366;8.530;2023-05-19T02:39:42;5.50;;;2.50;;
5801;SDS011;2927;49.366;8.530;2023-05-19T02:42:08;7.10;;;2.90;;
5801;SDS011;2927;49.366;8.530;2023-05-19T02:44:34;9.60;;;2.43;;
5801;SDS011;2927;49.366;8.530;2023-05-19T02:47:00;7.20;;;2.80;;
5801;SDS011;2927;49.366;8.530;2023-05-19T02:49:26;4.60;;;2.87;;
5801;SDS011;2927;49.366;8.530;2023-05-19T02:51:59;7.27;;;2.77;;
5801;SDS011;2927;49.366;8.530;2023-05-19T02:54:31;11.33;;;2.70;;
5801;SDS011;2927;49.366;8.530;2023-05-19T02:56:58;4.87;;;2.80;;
5801;SDS011;2927;49.366;8.530;2023-05-19T02:59:24;6.43;;;2.90;;
5801;SDS011;2927;49.366;8.530;2023-05-19T03:01:57;5.20;;;2.30;;
5801;SDS011;2927;49.366;8.530;2023-05-19T03:04:26;13.27;;;4.07;;
5801;SDS011;2927;49.366;8.530;2023-05-19T03:06:53;5.17;;;3.00;;
5801;SDS011;2927;49.366;8.530;2023-05-19T03:09:19;6.63;;;2.70;;
5801;SDS011;2927;49.366;8.530;2023-05-19T03:11:45;9.43;;;3.10;;
5801;SDS011;2927;49.366;8.530;2023-05-19T03:14:11;6.30;;;2.57;;
5801;SDS011;2927;49.366;8.530;2023-05-19T03:16:38;6.23;;;2.50;;
5801;SDS011;2927;49.366;8.530;2023-05-19T03:19:04;5.83;;;2.90;;
5801;SDS011;2927;49.366;8.530;2023-05-19T03:21:30;4.47;;;2.30;;
5801;SDS011;2927;49.366;8.530;2023-05-19T03:23:56;7.33;;;3.20;;
5801;SDS011;2927;49.366;8.530;2023-05-19T03:26:21;7.27;;;2.93;;
5801;SDS011;2927;49.366;8.530;2023-05-19T03:28:47;6.30;;;2.73;;
5801;SDS011;2927;49.366;8.530;2023-05-19T03:31:12;18.20;;;3.33;;
5801;SDS011;2927;49.366;8.530;2023-05-19T03:33:45;6.70;;;2.77;;
5801;SDS011;2927;49.366;8.530;2023-05-19T03:36:13;5.67;;;3.30;;
5801;SDS011;2927;49.366;8.530;2023-05-19T03:38:38;24.83;;;3.50;;
5801;SDS011;2927;49.366;8.530;2023-05-19T03:41:04;3.87;;;2.93;;
5801;SDS011;2927;49.366;8.530;2023-05-19T03:43:30;13.30;;;3.13;;
5801;SDS011;2927;49.366;8.530;2023-05-19T03:45:55;12.10;;;3.73;;
5801;SDS011;2927;49.366;8.530;2023-05-19T03:48:22;10.17;;;3.40;;
5801;SDS011;2927;49.366;8.530;2023-05-19T03:50:47;4.80;;;2.70;;
5801;SDS011;2927;49.366;8.530;2023-05-19T03:53:13;6.63;;;3.07;;
5801;SDS011;2927;49.366;8.530;2023-05-19T03:55:38;7.30;;;3.10;;
5801;SDS011;2927;49.366;8.530;2023-05-19T03:58:04;5.27;;;2.70;;
5801;SDS011;2927;49.366;8.530;2023-05-19T04:00:33;7.00;;;3.30;;
5801;SDS011;2927;49.366;8.530;2023-05-19T04:02:58;3.40;;;2.83;;
5801;SDS011;2927;49.366;8.530;2023-05-19T04:05:24;9.27;;;2.87;;
5801;SDS011;2927;49.366;8.530;2023-05-19T04:07:50;11.07;;;2.77;;
5801;SDS011;2927;49.366;8.530;2023-05-19T04:10:15;9.23;;;2.80;;
5801;SDS011;2927;49.366;8.530;2023-05-19T04:12:41;4.93;;;3.10;;
5801;SDS011;2927;49.366;8.530;2023-05-19T04:15:06;7.20;;;3.80;;
5801;SDS011;2927;49.366;8.530;2023-05-19T04:17:36;6.00;;;3.00;;
5801;SDS011;2927;49.366;8.530;2023-05-19T04:20:02;3.67;;;2.50;;
5801;SDS011;2927;49.366;8.530;2023-05-19T04:22:32;14.00;;;2.93;;
5801;SDS011;2927;49.366;8.530;2023-05-19T04:24:57;7.30;;;2.90;;
5801;SDS011;2927;49.366;8.530;2023-05-19T04:27:24;4.10;;;2.13;;
5801;SDS011;2927;49.366;8.530;2023-05-19T04:29:51;6.40;;;2.53;;
5801;SDS011;2927;49.366;8.530;2023-05-19T04:32:18;4.93;;;2.47;;
5801;SDS011;2927;49.366;8.530;2023-05-19T04:34:44;4.00;;;2.80;;
5801;SDS011;2927;49.366;8.530;2023-05-19T04:37:13;7.20;;;2.83;;
5801;SDS011;2927;49.366;8.530;2023-05-19T04:39:40;2.83;;;2.40;;
5801;SDS011;2927;49.366;8.530;2023-05-19T04:42:10;6.70;;;2.53;;
5801;SDS011;2927;49.366;8.530;2023-05-19T04:44:36;4.53;;;2.37;;
5801;SDS011;2927;49.366;8.530;2023-05-19T04:47:04;7.70;;;3.20;;
5801;SDS011;2927;49.366;8.530;2023-05-19T04:49:32;7.10;;;2.20;;
5801;SDS011;2927;49.366;8.530;2023-05-19T04:52:02;7.90;;;2.60;;
5801;SDS011;2927;49.366;8.530;2023-05-19T04:54:32;8.07;;;2.70;;
5801;SDS011;2927;49.366;8.530;2023-05-19T04:56:58;3.80;;;2.90;;
5801;SDS011;2927;49.366;8.530;2023-05-19T04:59:24;3.90;;;2.30;;
5801;SDS011;2927;49.366;8.530;2023-05-19T05:01:49;7.90;;;2.00;;
5801;SDS011;2927;49.366;8.530;2023-05-19T05:04:15;3.23;;;2.47;;
5801;SDS011;2927;49.366;8.530;2023-05-19T05:06:40;9.60;;;2.57;;
5801;SDS011;2927;49.366;8.530;2023-05-19T05:09:11;5.57;;;2.90;;
5801;SDS011;2927;49.366;8.530;2023-05-19T05:11:37;3.27;;;2.30;;
5801;SDS011;2927;49.366;8.530;2023-05-19T05:14:03;8.60;;;2.33;;
5801;SDS011;2927;49.366;8.530;2023-05-19T05:16:29;3.03;;;2.73;;
5801;SDS011;2927;49.366;8.530;2023-05-19T05:18:55;4.50;;;2.67;;
5801;SDS011;2927;49.366;8.530;2023-05-19T05:21:22;13.63;;;3.87;;
5801;SDS011;2927;49.366;8.530;2023-05-19T05:23:48;6.50;;;2.80;;
5801;SDS011;2927;49.366;8.530;2023-05-19T05:26:18;7.60;;;3.43;;
5801;SDS011;2927;49.366;8.530;2023-05-19T05:28:47;6.27;;;3.03;;
5801;SDS011;2927;49.366;8.530;2023-05-19T05:31:13;5.97;;;2.53;;
5801;SDS011;2927;49.366;8.530;2023-05-19T05:33:39;11.03;;;3.60;;
5801;SDS011;2927;49.366;8.530;2023-05-19T05:36:05;8.60;;;2.57;;
5801;SDS011;2927;49.366;8.530;2023-05-19T05:38:30;5.00;;;2.90;;
5801;SDS011;2927;49.366;8.530;2023-05-19T05:40:56;8.77;;;2.90;;
5801;SDS011;2927;49.366;8.530;2023-05-19T05:43:21;8.80;;;3.27;;
5801;SDS011;2927;49.366;8.530;2023-05-19T05:45:47;10.77;;;3.00;;
5801;SDS011;2927;49.366;8.530;2023-05-19T05:48:13;5.60;;;2.40;;
5801;SDS011;2927;49.366;8.530;2023-05-19T05:50:38;18.43;;;3.50;;
5801;SDS011;2927;49.366;8.530;2023-05-19T05:53:06;7.00;;;2.87;;
5801;SDS011;2927;49.366;8.530;2023-05-19T05:55:33;9.80;;;2.37;;
5801;SDS011;2927;49.366;8.530;2023-05-19T05:57:59;9.80;;;3.03;;
5801;SDS011;2927;49.366;8.530;2023-05-19T06:00:26;8.17;;;2.00;;
5801;SDS011;2927;49.366;8.530;2023-05-19T06:02:52;8.63;;;3.13;;
5801;SDS011;2927;49.366;8.530;2023-05-19T06:05:18;5.53;;;2.13;;
5801;SDS011;2927;49.366;8.530;2023-05-19T06:07:43;5.03;;;2.70;;
5801;SDS011;2927;49.366;8.530;2023-05-19T06:10:10;6.07;;;2.67;;
5801;SDS011;2927;49.366;8.530;2023-05-19T06:12:36;12.03;;;3.00;;
5801;SDS011;2927;49.366;8.530;2023-05-19T06:15:06;6.90;;;2.57;;
5801;SDS011;2927;49.366;8.530;2023-05-19T06:17:33;5.77;;;2.33;;
5801;SDS011;2927;49.366;8.530;2023-05-19T06:20:02;6.33;;;2.27;;
5801;SDS011;2927;49.366;8.530;2023-05-19T06:22:32;8.97;;;1.90;;
5801;SDS011;2927;49.366;8.530;2023-05-19T06:24:58;4.70;;;2.17;;
5801;SDS011;2927;49.366;8.530;2023-05-19T06:27:23;9.17;;;2.87;;
5801;SDS011;2927;49.366;8.530;2023-05-19T06:29:49;6.40;;;2.47;;
5801;SDS011;2927;49.366;8.530;2023-05-19T06:32:15;4.03;;;2.00;;
5801;SDS011;2927;49.366;8.530;2023-05-19T06:34:40;2.30;;;2.07;;
5801;SDS011;2927;49.366;8.530;2023-05-19T06:37:06;2.93;;;2.10;;
5801;SDS011;2927;49.366;8.530;2023-05-19T06:39:31;4.10;;;2.20;;
5801;SDS011;2927;49.366;8.530;2023-05-19T06:41:57;10.43;;;2.57;;
5801;SDS011;2927;49.366;8.530;2023-05-19T06:44:22;4.70;;;2.10;;
5801;SDS011;2927;49.366;8.530;2023-05-19T06:46:48;9.33;;;2.13;;
5801;SDS011;2927;49.366;8.530;2023-05-19T06:49:13;6.23;;;2.03;;
5801;SDS011;2927;49.366;8.530;2023-05-19T06:51:39;3.97;;;1.80;;
5801;SDS011;2927;49.366;8.530;2023-05-19T06:54:05;5.27;;;2.20;;
5801;SDS011;2927;49.366;8.530;2023-05-19T06:56:30;4.57;;;2.23;;
5801;SDS011;2927;49.366;8.530;2023-05-19T06:58:56;4.07;;;2.27;;
5801;SDS011;2927;49.366;8.530;2023-05-19T07:01:22;4.05;;;1.95;;
5801;SDS011;2927;49.366;8.530;2023-05-19T07:03:47;6.88;;;2.35;;
5801;SDS011;2927;49.366;8.530;2023-05-19T07:06:13;2.78;;;1.90;;
5801;SDS011;2927;49.366;8.530;2023-05-19T07:08:38;6.30;;;2.72;;
5801;SDS011;2927;49.366;8.530;2023-05-19T07:11:04;7.68;;;2.33;;
5801;SDS011;2927;49.366;8.530;2023-05-19T07:13:30;9.63;;;2.42;;
5801;SDS011;2927;49.366;8.530;2023-05-19T07:15:56;3.75;;;2.30;;
5801;SDS011;2927;49.366;8.530;2023-05-19T07:18:22;3.05;;;2.05;;
5801;SDS011;2927;49.366;8.530;2023-05-19T07:20:47;4.90;;;2.13;;
5801;SDS011;2927;49.366;8.530;2023-05-19T07:23:13;4.45;;;2.33;;
5801;SDS011;2927;49.366;8.530;2023-05-19T07:25:39;3.85;;;2.25;;
5801;SDS011;2927;49.366;8.530;2023-05-19T07:28:04;4.82;;;2.38;;
5801;SDS011;2927;49.366;8.530;2023-05-19T07:30:30;11.52;;;2.03;;
5801;SDS011;2927;49.366;8.530;2023-05-19T07:32:55;5.53;;;2.33;;
5801;SDS011;2927;49.366;8.530;2023-05-19T07:35:21;15.77;;;2.45;;
5801;SDS011;2927;49.366;8.530;2023-05-19T07:37:47;6.28;;;2.65;;
5801;SDS011;2927;49.366;8.530;2023-05-19T07:40:13;7.90;;;2.75;;
5801;SDS011;2927;49.366;8.530;2023-05-19T07:42:39;3.95;;;2.50;;
5801;SDS011;2927;49.366;8.530;2023-05-19T07:45:05;2.83;;;2.47;;
5801;SDS011;2927;49.366;8.530;2023-05-19T07:47:31;7.25;;;2.15;;
5801;SDS011;2927;49.366;8.530;2023-05-19T07:49:57;8.50;;;1.90;;
5801;SDS011;2927;49.366;8.530;2023-05-19T07:52:22;7.15;;;2.42;;
5801;SDS011;2927;49.366;8.530;2023-05-19T07:54:48;4.57;;;2.63;;
5801;SDS011;2927;49.366;8.530;2023-05-19T07:57:13;7.20;;;2.50;;
5801;SDS011;2927;49.366;8.530;2023-05-19T07:59:39;2.00;;;1.67;;
5801;SDS011;2927;49.366;8.530;2023-05-19T08:02:04;9.52;;;2.40;;
5801;SDS011;2927;49.366;8.530;2023-05-19T08:04:30;4.55;;;2.15;;
5801;SDS011;2927;49.366;8.530;2023-05-19T08:06:56;7.70;;;3.03;;
5801;SDS011;2927;49.366;8.530;2023-05-19T08:09:22;5.70;;;2.85;;
5801;SDS011;2927;49.366;8.530;2023-05-19T08:11:47;2.75;;;2.28;;
5801;SDS011;2927;49.366;8.530;2023-05-19T08:14:13;6.35;;;2.00;;
5801;SDS011;2927;49.366;8.530;2023-05-19T08:16:39;7.25;;;2.78;;
5801;SDS011;2927;49.366;8.530;2023-05-19T08:19:07;4.88;;;2.03;;
5801;SDS011;2927;49.366;8.530;2023-05-19T08:21:33;4.20;;;2.20;;
5801;SDS011;2927;49.366;8.530;2023-05-19T08:23:59;7.13;;;2.05;;
5801;SDS011;2927;49.366;8.530;2023-05-19T08:26:26;7.32;;;2.20;;
5801;SDS011;2927;49.366;8.530;2023-05-19T08:28:52;3.03;;;1.92;;
5801;SDS011;2927;49.366;8.530;2023-05-19T08:31:18;2.65;;;1.85;;
5801;SDS011;2927;49.366;8.530;2023-05-19T08:33:44;3.22;;;2.45;;
5801;SDS011;2927;49.366;8.530;2023-05-19T08:36:09;4.18;;;2.50;;
5801;SDS011;2927;49.366;8.530;2023-05-19T08:38:35;6.45;;;2.92;;
5801;SDS011;2927;49.366;8.530;2023-05-19T08:41:01;4.43;;;2.13;;
5801;SDS011;2927;49.366;8.530;2023-05-19T08:43:26;3.78;;;1.92;;
5801;SDS011;2927;49.366;8.530;2023-05-19T08:45:52;4.22;;;2.58;;
5801;SDS011;2927;49.366;8.530;2023-05-19T08:48:19;3.58;;;2.15;;
5801;SDS011;2927;49.366;8.530;2023-05-19T08:50:50;4.18;;;2.28;;
5801;SDS011;2927;49.366;8.530;2023-05-19T08:53:22;3.67;;;2.08;;
5801;SDS011;2927;49.366;8.530;2023-05-19T08:56:05;9.55;;;1.92;;
5801;SDS011;2927;49.366;8.530;2023-05-19T08:58:39;4.43;;;1.98;;
5801;SDS011;2927;49.366;8.530;2023-05-19T09:01:07;2.92;;;1.58;;
5801;SDS011;2927;49.366;8.530;2023-05-19T09:03:34;3.75;;;2.30;;
5801;SDS011;2927;49.366;8.530;2023-05-19T09:06:08;3.85;;;2.05;;
5801;SDS011;2927;49.366;8.530;2023-05-19T09:08:38;2.92;;;1.90;;
5801;SDS011;2927;49.366;8.530;2023-05-19T09:11:05;7.22;;;2.30;;
5801;SDS011;2927;49.366;8.530;2023-05-19T09:13:30;6.13;;;2.20;;
5801;SDS011;2927;49.366;8.530;2023-05-19T09:15:56;2.40;;;2.00;;
5801;SDS011;2927;49.366;8.530;2023-05-19T09:18:23;6.30;;;2.55;;
5801;SDS011;2927;49.366;8.530;2023-05-19T09:20:50;3.95;;;1.77;;
5801;SDS011;2927;49.366;8.530;2023-05-19T09:23:23;5.30;;;2.25;;
5801;SDS011;2927;49.366;8.530;2023-05-19T09:25:53;2.47;;;1.70;;
5801;SDS011;2927;49.366;8.530;2023-05-19T09:28:25;4.53;;;2.13;;
5801;SDS011;2927;49.366;8.530;2023-05-19T09:31:00;2.92;;;1.88;;
5801;SDS011;2927;49.366;8.530;2023-05-19T09:33:27;9.40;;;2.65;;
5801;SDS011;2927;49.366;8.530;2023-05-19T09:35:53;4.55;;;2.00;;
5801;SDS011;2927;49.366;8.530;2023-05-19T09:38:20;3.22;;;1.88;;
5801;SDS011;2927;49.366;8.530;2023-05-19T09:40:48;5.07;;;2.50;;
5801;SDS011;2927;49.366;8.530;2023-05-19T09:43:16;5.25;;;1.83;;
5801;SDS011;2927;49.366;8.530;2023-05-19T09:45:41;6.80;;;2.30;;
5801;SDS011;2927;49.366;8.530;2023-05-19T09:48:07;2.25;;;1.60;;
5801;SDS011;2927;49.366;8.530;2023-05-19T09:50:32;2.83;;;2.03;;
5801;SDS011;2927;49.366;8.530;2023-05-19T09:52:59;5.15;;;2.00;;
5801;SDS011;2927;49.366;8.530;2023-05-19T09:55:27;1.77;;;1.63;;
5801;SDS011;2927;49.366;8.530;2023-05-19T09:57:56;4.63;;;2.30;;
5801;SDS011;2927;49.366;8.530;2023-05-19T10:00:22;4.85;;;2.03;;
5801;SDS011;2927;49.366;8.530;2023-05-19T10:02:48;4.72;;;1.92;;
5801;SDS011;2927;49.366;8.530;2023-05-19T10:05:16;2.72;;;1.88;;
5801;SDS011;2927;49.366;8.530;2023-05-19T10:07:51;4.75;;;1.80;;
5801;SDS011;2927;49.366;8.530;2023-05-19T10:10:18;1.83;;;1.73;;
5801;SDS011;2927;49.366;8.530;2023-05-19T10:12:45;3.15;;;1.95;;
5801;SDS011;2927;49.366;8.530;2023-05-19T10:15:12;3.05;;;2.33;;
5801;SDS011;2927;49.366;8.530;2023-05-19T10:17:42;4.10;;;1.52;;
5801;SDS011;2927;49.366;8.530;2023-05-19T10:20:12;2.05;;;1.38;;
5801;SDS011;2927;49.366;8.530;2023-05-19T10:22:40;2.55;;;1.70;;
5801;SDS011;2927;49.366;8.530;2023-05-19T10:25:08;4.65;;;2.20;;
5801;SDS011;2927;49.366;8.530;2023-05-19T10:27:36;7.78;;;2.15;;
5801;SDS011;2927;49.366;8.530;2023-05-19T10:30:08;6.70;;;2.17;;
5801;SDS011;2927;49.366;8.530;2023-05-19T10:32:37;3.95;;;1.92;;
5801;SDS011;2927;49.366;8.530;2023-05-19T10:40:20;2.83;;;1.53;;
5801;SDS011;2927;49.366;8.530;2023-05-19T10:45:17;11.10;;;1.90;;
5801;SDS011;2927;49.366;8.530;2023-05-19T10:47:45;4.07;;;1.80;;
5801;SDS011;2927;49.366;8.530;2023-05-19T10:50:11;1.60;;;1.50;;
5801;SDS011;2927;49.366;8.530;2023-05-19T10:52:37;4.63;;;1.60;;
5801;SDS011;2927;49.366;8.530;2023-05-19T10:55:07;2.30;;;1.70;;
5801;SDS011;2927;49.366;8.530;2023-05-19T10:57:34;6.23;;;2.13;;
5801;SDS011;2927;49.366;8.530;2023-05-19T11:00:04;1.63;;;1.37;;
5801;SDS011;2927;49.366;8.530;2023-05-19T11:02:53;4.73;;;2.10;;
5801;SDS011;2927;49.366;8.530;2023-05-19T11:05:35;4.57;;;2.20;;
5801;SDS011;2927;49.366;8.530;2023-05-19T11:08:01;3.67;;;1.93;;
5801;SDS011;2927;49.366;8.530;2023-05-19T11:10:29;7.33;;;1.57;;
5801;SDS011;2927;49.366;8.530;2023-05-19T11:12:55;4.67;;;2.37;;
5801;SDS011;2927;49.366;8.530;2023-05-19T11:15:22;6.00;;;1.60;;
5801;SDS011;2927;49.366;8.530;2023-05-19T11:17:50;11.13;;;1.53;;
5801;SDS011;2927;49.366;8.530;2023-05-19T11:20:23;5.77;;;1.63;;
5801;SDS011;2927;49.366;8.530;2023-05-19T11:23:00;2.90;;;1.93;;
5801;SDS011;2927;49.366;8.530;2023-05-19T11:25:42;8.73;;;1.90;;
5801;SDS011;2927;49.366;8.530;2023-05-19T11:28:10;3.73;;;1.70;;
5801;SDS011;2927;49.366;8.530;2023-05-19T11:30:37;6.70;;;1.83;;
5801;SDS011;2927;49.366;8.530;2023-05-19T11:33:05;1.90;;;1.30;;
5801;SDS011;2927;49.366;8.530;2023-05-19T11:35:32;8.17;;;1.80;;
5801;SDS011;2927;49.366;8.530;2023-05-19T11:37:58;3.30;;;1.43;;
5801;SDS011;2927;49.366;8.530;2023-05-19T11:40:23;3.63;;;2.27;;
5801;SDS011;2927;49.366;8.530;2023-05-19T11:42:50;2.80;;;1.83;;
5801;SDS011;2927;49.366;8.530;2023-05-19T11:45:16;2.83;;;1.43;;
5801;SDS011;2927;49.366;8.530;2023-05-19T11:47:41;5.67;;;2.23;;
5801;SDS011;2927;49.366;8.530;2023-05-19T11:50:09;4.00;;;1.63;;
5801;SDS011;2927;49.366;8.530;2023-05-19T11:52:36;4.30;;;1.70;;
5801;SDS011;2927;49.366;8.530;2023-05-19T11:55:02;5.50;;;2.20;;
5801;SDS011;2927;49.366;8.530;2023-05-19T11:57:27;3.97;;;1.53;;
5801;SDS011;2927;49.366;8.530;2023-05-19T11:59:53;3.73;;;1.63;;
5801;SDS011;2927;49.366;8.530;2023-05-19T12:02:21;5.87;;;2.07;;
5801;SDS011;2927;49.366;8.530;2023-05-19T12:04:51;2.20;;;1.77;;
5801;SDS011;2927;49.366;8.530;2023-05-19T12:07:20;4.93;;;1.60;;
5801;SDS011;2927;49.366;8.530;2023-05-19T12:09:48;3.20;;;1.80;;
5801;SDS011;2927;49.366;8.530;2023-05-19T12:12:15;6.30;;;1.73;;
5801;SDS011;2927;49.366;8.530;2023-05-19T12:14:41;8.07;;;1.90;;
5801;SDS011;2927;49.366;8.530;2023-05-19T12:17:13;2.10;;;1.90;;
5801;SDS011;2927;49.366;8.530;2023-05-19T12:19:44;7.07;;;1.90;;
5801;SDS011;2927;49.366;8.530;2023-05-19T12:22:10;5.20;;;1.90;;
5801;SDS011;2927;49.366;8.530;2023-05-19T12:24:37;3.27;;;1.63;;
5801;SDS011;2927;49.366;8.530;2023-05-19T12:29:47;4.10;;;1.60;;
5801;SDS011;2927;49.366;8.530;2023-05-19T12:32:16;4.37;;;2.30;;
5801;SDS011;2927;49.366;8.530;2023-05-19T12:34:41;4.20;;;1.77;;
5801;SDS011;2927;49.366;8.530;2023-05-19T12:37:07;6.40;;;2.00;;
5801;SDS011;2927;49.366;8.530;2023-05-19T12:39:35;4.93;;;2.17;;
5801;SDS011;2927;49.366;8.530;2023-05-19T12:42:07;7.80;;;2.20;;
5801;SDS011;2927;49.366;8.530;2023-05-19T12:44:36;4.90;;;4.30;;
5801;SDS011;2927;49.366;8.530;2023-05-19T12:47:13;4.30;;;2.53;;
5801;SDS011;2927;49.366;8.530;2023-05-19T12:49:52;2.83;;;2.60;;
5801;SDS011;2927;49.366;8.530;2023-05-19T12:52:41;4.27;;;2.20;;
5801;SDS011;2927;49.366;8.530;2023-05-19T12:55:11;9.27;;;2.03;;
5801;SDS011;2927;49.366;8.530;2023-05-19T12:57:42;8.60;;;2.60;;
5801;SDS011;2927;49.366;8.530;2023-05-19T13:00:18;7.87;;;2.53;;
5801;SDS011;2927;49.366;8.530;2023-05-19T13:03:02;7.83;;;2.73;;
5801;SDS011;2927;49.366;8.530;2023-05-19T13:05:38;4.87;;;2.40;;
5801;SDS011;2927;49.366;8.530;2023-05-19T13:08:08;5.80;;;1.73;;
5801;SDS011;2927;49.366;8.530;2023-05-19T13:10:38;4.47;;;1.40;;
5801;SDS011;2927;49.366;8.530;2023-05-19T13:13:05;3.50;;;2.10;;
5801;SDS011;2927;49.366;8.530;2023-05-19T13:15:32;6.03;;;1.67;;
5801;SDS011;2927;49.366;8.530;2023-05-19T13:18:00;6.97;;;2.30;;
5801;SDS011;2927;49.366;8.530;2023-05-19T13:20:27;11.80;;;1.77;;
5801;SDS011;2927;49.366;8.530;2023-05-19T13:22:52;7.77;;;2.30;;
5801;SDS011;2927;49.366;8.530;2023-05-19T13:25:18;6.30;;;1.60;;
5801;SDS011;2927;49.366;8.530;2023-05-19T13:27:45;3.77;;;1.30;;
5801;SDS011;2927;49.366;8.530;2023-05-19T13:30:11;4.33;;;1.80;;
5801;SDS011;2927;49.366;8.530;2023-05-19T13:32:38;4.67;;;1.83;;
5801;SDS011;2927;49.366;8.530;2023-05-19T13:35:03;2.97;;;1.43;;
5801;SDS011;2927;49.366;8.530;2023-05-19T13:37:29;4.37;;;2.10;;
5801;SDS011;2927;49.366;8.530;2023-05-19T13:39:55;5.57;;;1.77;;
5801;SDS011;2927;49.366;8.530;2023-05-19T13:42:23;4.20;;;1.87;;
5801;SDS011;2927;49.366;8.530;2023-05-19T13:44:48;2.17;;;1.60;;
5801;SDS011;2927;49.366;8.530;2023-05-19T13:47:17;3.87;;;1.40;;
5801;SDS011;2927;49.366;8.530;2023-05-19T13:49:43;8.47;;;2.70;;
5801;SDS011;2927;49.366;8.530;2023-05-19T13:52:08;5.63;;;2.13;;
5801;SDS011;2927;49.366;8.530;2023-05-19T13:54:35;6.60;;;1.70;;
5801;SDS011;2927;49.366;8.530;2023-05-19T13:57:01;2.17;;;1.10;;
5801;SDS011;2927;49.366;8.530;2023-05-19T13:59:26;7.03;;;1.60;;
5801;SDS011;2927;49.366;8.530;2023-05-19T14:01:52;8.70;;;1.77;;
5801;SDS011;2927;49.366;8.530;2023-05-19T14:04:17;1.77;;;1.27;;
5801;SDS011;2927;49.366;8.530;2023-05-19T14:06:43;4.00;;;1.60;;
5801;SDS011;2927;49.366;8.530;2023-05-19T14:09:10;3.17;;;1.90;;
5801;SDS011;2927;49.366;8.530;2023-05-19T14:11:36;2.60;;;1.43;;
5801;SDS011;2927;49.366;8.530;2023-05-19T14:14:02;2.43;;;1.50;;
5801;SDS011;2927;49.366;8.530;2023-05-19T14:16:28;3.20;;;1.17;;
5801;SDS011;2927;49.366;8.530;2023-05-19T14:18:54;8.30;;;1.70;;
5801;SDS011;2927;49.366;8.530;2023-05-19T14:21:20;4.40;;;1.37;;
5801;SDS011;2927;49.366;8.530;2023-05-19T14:23:45;1.47;;;1.30;;
5801;SDS011;2927;49.366;8.530;2023-05-19T14:26:11;3.83;;;1.67;;
5801;SDS011;2927;49.366;8.530;2023-05-19T14:28:36;5.30;;;2.10;;
5801;SDS011;2927;49.366;8.530;2023-05-19T14:31:02;6.13;;;1.53;;
5801;SDS011;2927;49.366;8.530;2023-05-19T14:33:28;5.33;;;1.60;;
5801;SDS011;2927;49.366;8.530;2023-05-19T14:35:53;4.80;;;2.27;;
5801;SDS011;2927;49.366;8.530;2023-05-19T14:38:19;9.30;;;1.53;;
5801;SDS011;2927;49.366;8.530;2023-05-19T14:40:45;3.20;;;1.13;;
5801;SDS011;2927;49.366;8.530;2023-05-19T14:43:12;8.40;;;1.30;;
5801;SDS011;2927;49.366;8.530;2023-05-19T14:45:38;4.60;;;2.10;;
5801;SDS011;2927;49.366;8.530;2023-05-19T14:48:05;2.50;;;1.47;;
5801;SDS011;2927;49.366;8.530;2023-05-19T14:50:31;13.43;;;1.50;;
5801;SDS011;2927;49.366;8.530;2023-05-19T14:52:57;3.10;;;1.73;;
5801;SDS011;2927;49.366;8.530;2023-05-19T14:55:22;5.27;;;2.03;;
5801;SDS011;2927;49.366;8.530;2023-05-19T14:57:48;5.43;;;1.67;;
5801;SDS011;2927;49.366;8.530;2023-05-19T15:00:14;4.53;;;1.70;;
5801;SDS011;2927;49.366;8.530;2023-05-19T15:02:40;3.60;;;1.50;;
5801;SDS011;2927;49.366;8.530;2023-05-19T15:05:06;1.83;;;1.30;;
5801;SDS011;2927;49.366;8.530;2023-05-19T15:07:32;2.90;;;1.70;;
5801;SDS011;2927;49.366;8.530;2023-05-19T15:09:57;3.03;;;1.67;;
5801;SDS011;2927;49.366;8.530;2023-05-19T15:12:23;2.33;;;1.50;;
5801;SDS011;2927;49.366;8.530;2023-05-19T15:14:49;3.50;;;1.60;;
5801;SDS011;2927;49.366;8.530;2023-05-19T15:17:14;12.60;;;1.70;;
5801;SDS011;2927;49.366;8.530;2023-05-19T15:19:40;3.23;;;1.70;;
5801;SDS011;2927;49.366;8.530;2023-05-19T15:22:06;3.77;;;1.43;;
5801;SDS011;2927;49.366;8.530;2023-05-19T15:24:32;1.60;;;1.50;;
5801;SDS011;2927;49.366;8.530;2023-05-19T15:26:58;4.23;;;1.53;;
5801;SDS011;2927;49.366;8.530;2023-05-19T15:29:24;5.00;;;1.63;;
5801;SDS011;2927;49.366;8.530;2023-05-19T15:31:50;2.97;;;1.50;;
5801;SDS011;2927;49.366;8.530;2023-05-19T15:34:16;2.50;;;1.70;;
5801;SDS011;2927;49.366;8.530;2023-05-19T15:36:42;4.90;;;2.03;;
5801;SDS011;2927;49.366;8.530;2023-05-19T15:39:07;4.10;;;2.20;;
5801;SDS011;2927;49.366;8.530;2023-05-19T15:41:33;1.87;;;1.67;;
5801;SDS011;2927;49.366;8.530;2023-05-19T15:43:59;2.97;;;2.00;;